createdAt,value
2022-08-22T01:43:58.693Z,99106.94
2022-08-22T01:46:42.845Z,99113.03
2022-08-22T01:49:21.939Z,99116.37
2022-08-22T02:23:50.602Z,99104.25
2022-08-22T02:30:31.281Z,99093.63
2022-08-22T02:33:05.771Z,99084.22
2022-08-22T02:35:57.013Z,99083.53
2022-08-22T03:42:25.312Z,99120.44
2022-08-22T03:45:43.039Z,99117.97
2022-08-22T03:48:28.168Z,99117.81
2022-08-22T03:51:23.803Z,99131.31
2022-08-22T03:53:50.336Z,99125.81
2022-08-22T05:10:09.263Z,99144.41
2022-08-22T05:12:53.973Z,99142.56
2022-08-22T05:15:27.383Z,99147.97
2022-08-22T06:44:00.307Z,99205.75
2022-08-22T06:46:40.479Z,99206.25
2022-08-22T06:49:40.764Z,99211.81
2022-08-22T07:00:11.819Z,99197.81
2022-08-22T07:02:43.271Z,99198.22
2022-08-22T07:05:25.932Z,99205.69
2022-08-22T07:07:53.127Z,99199.16
2022-08-22T07:10:23.644Z,99202.25
2022-08-22T07:12:54.370Z,99212.09
2022-08-22T07:15:27.784Z,99205.59
2022-08-22T07:18:05.682Z,99205.31
2022-08-22T07:41:14.385Z,99220.09
2022-08-22T09:03:52.503Z,99228.22
2022-08-22T11:09:43.061Z,99246.16
2022-08-22T11:12:37.389Z,99243.62
2022-08-22T11:15:28.209Z,99237.22
2022-08-22T11:18:12.974Z,99237.25
2022-08-22T11:20:50.646Z,99242.75
2022-08-22T11:23:31.827Z,99245.34
2022-08-22T11:26:10.002Z,99240.59
2022-08-22T11:55:38.042Z,99228.59
2022-08-22T12:54:06.993Z,99223.41
2022-08-22T12:56:41.204Z,99218.28
2022-08-22T12:59:31.403Z,99222.19
2022-08-22T13:02:16.479Z,99223.53
2022-08-22T13:04:54.614Z,99225.13
2022-08-22T13:07:32.991Z,99218.28
2022-08-22T13:18:29.778Z,99234.31
2022-08-22T18:25:13.381Z,99304.00
2022-08-22T18:27:50.291Z,99306.06
2022-08-22T18:30:24.717Z,99309.09
2022-08-22T18:33:22.832Z,99305.16
2022-08-22T18:35:55.804Z,99320.63
2022-08-22T18:38:32.857Z,99315.63
2022-08-22T18:41:12.065Z,99322.44
2022-08-22T18:43:48.326Z,99334.84
2022-08-22T18:46:40.088Z,99339.31
2022-08-22T18:49:35.501Z,99343.72
2022-08-22T18:52:19.801Z,99341.38
2022-08-22T18:54:52.497Z,99339.88
2022-08-22T18:57:28.280Z,99343.50
2022-08-22T19:00:21.811Z,99343.16
2022-08-22T19:03:06.760Z,99344.28
2022-08-22T19:05:43.677Z,99339.13
2022-08-22T19:08:27.816Z,99347.88
2022-08-22T19:11:06.647Z,99343.06
2022-08-22T19:13:47.510Z,99347.09
2022-08-22T19:16:43.491Z,99352.91
2022-08-22T19:19:54.876Z,99356.50
2022-08-22T19:22:34.494Z,99359.63
2022-08-22T19:25:10.341Z,99352.75
2022-08-22T19:27:41.806Z,99355.53
2022-08-22T19:31:01.396Z,99363.03
2022-08-22T19:33:40.003Z,99364.78
2022-08-22T19:37:32.436Z,99358.75
2022-08-22T19:40:10.189Z,99372.62
2022-08-22T20:09:03.831Z,99372.44
2022-08-22T20:12:39.298Z,99371.16
2022-08-22T20:15:27.657Z,99372.53
2022-08-22T20:20:58.336Z,99369.78
2022-08-22T20:23:30.119Z,99367.59
2022-08-22T20:25:57.851Z,99367.22
2022-08-22T22:02:40.330Z,99351.19
2022-08-22T22:05:13.072Z,99348.41
2022-08-22T22:07:42.130Z,99351.59
2022-08-22T22:10:11.914Z,99359.81
2022-08-22T22:12:41.358Z,99362.56
2022-08-22T22:15:10.394Z,99368.63
2022-08-22T22:17:37.360Z,99372.72
2022-08-22T22:31:52.271Z,99388.19
2022-08-22T22:34:18.951Z,99381.81
2022-08-22T22:36:45.942Z,99389.81
2022-08-22T22:39:13.944Z,99378.28
2022-08-22T22:41:40.667Z,99394.62
2022-08-22T22:44:07.331Z,99394.28
2022-08-22T22:46:34.043Z,99394.97
2022-08-22T22:49:00.770Z,99394.97
2022-08-22T22:51:27.729Z,99396.91
2022-08-22T22:53:56.454Z,99388.66
2022-08-22T22:56:23.828Z,99385.38
2022-08-22T22:59:00.959Z,99389.75
2022-08-22T23:01:39.335Z,99399.28
2022-08-22T23:53:56.262Z,99386.16
